createdAt,value
2023-04-25T00:01:53.461Z,9.39
2023-04-25T00:04:20.431Z,9.37
2023-04-25T00:06:47.420Z,9.49
2023-04-25T00:09:13.775Z,9.51
2023-04-25T00:11:41.426Z,9.46
2023-04-25T00:14:08.087Z,9.46
2023-04-25T00:16:35.911Z,9.44
2023-04-25T00:19:04.109Z,9.47
2023-04-25T00:21:32.433Z,9.39
2023-04-25T00:23:58.820Z,9.40
2023-04-25T00:26:25.939Z,9.44
2023-04-25T00:28:52.283Z,9.35
2023-04-25T00:31:18.838Z,9.42
2023-04-25T00:33:45.374Z,9.27
2023-04-25T00:36:12.216Z,9.24
2023-04-25T00:38:39.162Z,9.24
2023-04-25T00:41:07.157Z,9.24
2023-04-25T00:43:34.859Z,9.26
2023-04-25T00:46:02.006Z,9.07
2023-04-25T00:48:28.538Z,9.11
2023-04-25T00:50:58.385Z,9.04
2023-04-25T00:53:27.119Z,9.04
2023-04-25T00:55:54.455Z,8.99
2023-04-25T00:58:22.471Z,9.03
2023-04-25T01:00:51.159Z,8.95
2023-04-25T01:03:20.817Z,8.89
2023-04-25T01:05:48.830Z,8.85
2023-04-25T01:08:15.699Z,8.81
2023-04-25T01:10:42.145Z,8.66
2023-04-25T01:13:09.189Z,8.66
2023-04-25T01:15:36.884Z,8.62
2023-04-25T01:18:04.804Z,8.63
2023-04-25T01:20:33.406Z,8.65
2023-04-25T01:23:00.808Z,8.53
2023-04-25T01:25:27.334Z,8.55
2023-04-25T01:27:54.014Z,8.48
2023-04-25T01:30:20.648Z,8.48
2023-04-25T01:32:48.370Z,8.37
2023-04-25T01:35:14.834Z,8.34
2023-04-25T01:37:42.330Z,8.27
2023-04-25T01:40:10.340Z,8.29
2023-04-25T01:42:38.542Z,8.24
2023-04-25T01:45:06.696Z,8.29
2023-04-25T01:47:33.365Z,8.29
2023-04-25T01:49:59.805Z,8.26
2023-04-25T01:52:26.195Z,8.18
2023-04-25T01:54:52.900Z,8.17
2023-04-25T01:57:19.247Z,8.15
2023-04-25T01:59:45.968Z,8.16
2023-04-25T02:02:12.369Z,8.06
2023-04-25T02:04:38.865Z,8.02
2023-04-25T02:07:05.347Z,8.08
2023-04-25T02:09:31.813Z,8.02
2023-04-25T02:11:58.907Z,7.98
2023-04-25T02:14:25.362Z,7.95
2023-04-25T02:16:52.265Z,7.91
2023-04-25T02:19:18.761Z,7.88
2023-04-25T02:21:45.135Z,7.95
2023-04-25T02:24:11.547Z,7.93
2023-04-25T02:26:37.900Z,7.89
2023-04-25T02:29:04.232Z,7.88
2023-04-25T02:31:30.639Z,7.87
2023-04-25T02:33:57.045Z,7.80
2023-04-25T02:36:23.769Z,7.81
2023-04-25T02:38:50.194Z,7.74
2023-04-25T02:41:16.632Z,7.69
2023-04-25T02:43:42.997Z,7.64
2023-04-25T02:46:09.714Z,7.79
2023-04-25T02:48:36.111Z,7.70
2023-04-25T02:51:02.463Z,7.60
2023-04-25T02:53:28.835Z,7.60
2023-04-25T02:55:55.472Z,7.57
2023-04-25T02:58:22.141Z,7.56
2023-04-25T03:00:48.519Z,7.55
2023-04-25T03:03:15.923Z,7.55
2023-04-25T03:05:42.418Z,7.54
2023-04-25T03:08:08.858Z,7.55
2023-04-25T03:10:35.305Z,7.48
2023-04-25T03:13:01.688Z,7.52
2023-04-25T03:15:28.126Z,7.49
2023-04-25T03:17:54.637Z,7.36
2023-04-25T03:20:21.153Z,7.36
2023-04-25T03:22:47.548Z,7.40
2023-04-25T03:25:14.057Z,7.29
2023-04-25T03:27:40.473Z,7.35
2023-04-25T03:30:08.762Z,7.26
2023-04-25T03:32:36.310Z,7.32
2023-04-25T03:35:02.728Z,7.23
2023-04-25T03:37:29.081Z,7.16
2023-04-25T03:39:55.438Z,7.18
2023-04-25T03:42:23.772Z,7.21
2023-04-25T03:44:50.952Z,7.14
2023-04-25T03:47:17.511Z,7.21
2023-04-25T03:49:44.009Z,7.20
2023-04-25T03:52:10.398Z,7.19
2023-04-25T03:54:36.927Z,7.12
2023-04-25T03:57:03.421Z,7.07
2023-04-25T03:59:29.812Z,7.06
2023-04-25T04:01:56.213Z,7.11
2023-04-25T04:04:22.789Z,7.17
2023-04-25T04:06:49.385Z,7.00
2023-04-25T04:09:16.477Z,6.96
2023-04-25T04:11:42.859Z,6.87
2023-04-25T04:14:10.908Z,6.90
2023-04-25T04:16:37.355Z,6.91
2023-04-25T04:19:04.196Z,6.87
2023-04-25T04:21:30.981Z,6.84
2023-04-25T04:23:58.773Z,6.88
2023-04-25T04:26:25.137Z,6.93
2023-04-25T04:28:55.310Z,6.95
2023-04-25T04:31:22.516Z,6.92
2023-04-25T04:33:49.147Z,6.96
2023-04-25T04:36:16.697Z,7.00
2023-04-25T04:38:43.303Z,7.03
2023-04-25T04:41:09.749Z,7.04
2023-04-25T04:43:36.155Z,7.03
2023-04-25T04:46:02.602Z,7.09
2023-04-25T04:48:29.183Z,7.06
2023-04-25T04:50:55.720Z,7.14
2023-04-25T04:53:22.234Z,7.11
2023-04-25T04:55:48.581Z,7.13
2023-04-25T04:58:16.075Z,7.14
2023-04-25T05:00:43.308Z,7.16
2023-04-25T05:03:09.899Z,7.15
2023-04-25T05:05:36.432Z,7.20
2023-04-25T05:08:02.831Z,7.26
2023-04-25T05:10:29.185Z,7.27
2023-04-25T05:12:55.620Z,7.25
2023-04-25T05:15:22.061Z,7.36
2023-04-25T05:17:48.488Z,7.38
2023-04-25T05:20:15.106Z,7.45
2023-04-25T05:22:42.734Z,7.55
2023-04-25T05:25:10.406Z,7.61
2023-04-25T05:27:36.853Z,7.53
2023-04-25T05:30:03.383Z,7.58
2023-04-25T05:32:29.854Z,7.60
2023-04-25T05:34:56.391Z,7.71
2023-04-25T05:37:22.869Z,7.68
2023-04-25T05:39:49.247Z,7.74
2023-04-25T05:42:15.661Z,7.79
2023-04-25T05:44:42.120Z,7.69
2023-04-25T05:47:08.818Z,7.69
2023-04-25T05:49:35.825Z,7.74
2023-04-25T05:52:05.170Z,7.87
2023-04-25T05:54:31.569Z,7.86
2023-04-25T05:56:58.139Z,7.95
2023-04-25T05:59:24.659Z,7.95
2023-04-25T06:01:51.120Z,7.82
2023-04-25T06:04:17.738Z,7.84
2023-04-25T06:06:44.211Z,7.95
2023-04-25T06:09:12.202Z,7.92
2023-04-25T06:11:40.608Z,7.97
2023-04-25T06:14:07.155Z,8.02
2023-04-25T06:16:33.564Z,7.92
2023-04-25T06:19:00.021Z,8.10
2023-04-25T06:21:26.771Z,8.01
2023-04-25T06:23:53.412Z,7.97
2023-04-25T06:26:20.401Z,7.98
2023-04-25T06:28:46.745Z,8.06
2023-04-25T06:31:13.102Z,8.18
2023-04-25T06:33:39.509Z,8.30
2023-04-25T06:36:06.089Z,8.27
2023-04-25T06:38:32.432Z,8.00
2023-04-25T06:40:58.967Z,7.98
2023-04-25T06:43:25.803Z,8.03
2023-04-25T06:45:52.207Z,8.01
2023-04-25T06:48:18.588Z,8.02
2023-04-25T06:50:44.974Z,8.09
2023-04-25T06:53:12.672Z,8.08
2023-04-25T06:55:39.136Z,8.06
2023-04-25T06:58:05.488Z,8.08
2023-04-25T07:00:33.195Z,8.20
2023-04-25T07:02:59.718Z,8.33
2023-04-25T07:05:26.404Z,8.40
2023-04-25T07:07:52.948Z,8.32
2023-04-25T07:10:19.375Z,8.38
2023-04-25T07:12:45.811Z,8.38
2023-04-25T07:15:12.572Z,8.44
2023-04-25T07:17:39.299Z,8.49
2023-04-25T07:20:06.988Z,8.71
2023-04-25T07:22:33.752Z,8.69
2023-04-25T07:25:00.166Z,8.66
2023-04-25T07:27:26.576Z,8.74
2023-04-25T07:29:53.239Z,8.64
2023-04-25T07:32:19.932Z,8.65
2023-04-25T07:34:46.435Z,8.81
2023-04-25T07:37:12.959Z,8.75
2023-04-25T07:39:39.386Z,8.78
2023-04-25T07:42:08.829Z,8.72
2023-04-25T07:44:39.619Z,8.70
2023-04-25T07:47:08.051Z,8.91
2023-04-25T07:49:35.954Z,8.92
2023-04-25T07:52:03.940Z,9.08
2023-04-25T07:54:30.774Z,8.99
2023-04-25T07:56:57.343Z,9.04
2023-04-25T07:59:24.079Z,9.11
2023-04-25T08:01:50.525Z,9.03
2023-04-25T08:04:17.814Z,9.07
2023-04-25T08:06:44.393Z,9.05
2023-04-25T08:09:10.987Z,9.13
2023-04-25T08:11:37.822Z,9.27
2023-04-25T08:14:04.266Z,9.34
2023-04-25T08:16:31.264Z,9.48
2023-04-25T08:18:57.866Z,9.54
2023-04-25T08:21:24.302Z,9.50
2023-04-25T08:23:50.676Z,9.44
2023-04-25T08:26:17.141Z,9.29
2023-04-25T08:28:43.576Z,9.28
2023-04-25T08:31:10.146Z,9.30
2023-04-25T08:33:36.775Z,9.37
2023-04-25T08:36:03.853Z,9.38
2023-04-25T08:38:30.309Z,9.30
2023-04-25T08:40:57.895Z,9.27
2023-04-25T08:43:24.536Z,9.20
2023-04-25T08:45:54.531Z,9.13
2023-04-25T08:48:22.266Z,9.18
2023-04-25T08:50:54.154Z,9.07
2023-04-25T08:53:26.666Z,9.11
2023-04-25T08:55:55.154Z,9.18
2023-04-25T08:58:21.719Z,9.07
2023-04-25T09:00:49.751Z,9.17
2023-04-25T09:03:17.126Z,9.19
2023-04-25T09:05:47.208Z,9.09
2023-04-25T09:08:13.729Z,9.21
2023-04-25T09:10:41.307Z,9.20
2023-04-25T09:13:16.042Z,8.99
2023-04-25T09:15:50.907Z,9.05
2023-04-25T09:18:30.804Z,8.99
2023-04-25T09:21:17.708Z,9.04
2023-04-25T09:23:49.446Z,8.93
2023-04-25T09:26:18.971Z,8.99
2023-04-25T09:28:46.803Z,9.03
2023-04-25T09:31:13.601Z,8.99
2023-04-25T09:33:42.021Z,8.96
2023-04-25T09:36:11.956Z,8.94
2023-04-25T09:38:44.264Z,8.91
2023-04-25T09:41:11.779Z,8.75
2023-04-25T09:43:38.975Z,8.75
2023-04-25T09:46:10.701Z,8.81
2023-04-25T09:48:37.369Z,8.80
2023-04-25T09:51:08.697Z,8.69
2023-04-25T09:53:55.030Z,8.76
2023-04-25T09:56:23.293Z,8.85
2023-04-25T09:58:54.688Z,8.85
2023-04-25T10:01:22.563Z,8.86
2023-04-25T10:03:51.555Z,9.09
2023-04-25T10:06:20.721Z,9.26
2023-04-25T10:08:51.908Z,9.37
2023-04-25T10:11:19.048Z,9.34
2023-04-25T10:13:46.565Z,9.36
2023-04-25T10:16:13.002Z,9.43
2023-04-25T10:18:39.395Z,9.32
2023-04-25T10:21:06.920Z,9.19
2023-04-25T10:23:35.538Z,9.28
2023-04-25T10:26:02.890Z,9.43
2023-04-25T10:28:30.134Z,9.31
2023-04-25T10:31:02.026Z,9.36
2023-04-25T10:33:37.444Z,9.36
2023-04-25T10:36:18.450Z,9.48
2023-04-25T10:38:46.468Z,9.54
2023-04-25T10:41:14.209Z,9.48
2023-04-25T10:43:42.579Z,9.49
2023-04-25T10:46:15.459Z,9.46
2023-04-25T10:48:50.681Z,9.26
2023-04-25T10:51:24.255Z,9.28
2023-04-25T10:54:09.845Z,9.20
2023-04-25T10:56:41.768Z,9.08
2023-04-25T10:59:12.402Z,8.90
2023-04-25T11:01:57.675Z,8.85
2023-04-25T11:04:26.012Z,8.88
2023-04-25T11:07:07.174Z,8.86
2023-04-25T11:09:35.318Z,8.79
2023-04-25T11:12:01.920Z,8.68
2023-04-25T11:14:28.741Z,8.64
2023-04-25T11:17:00.369Z,8.70
2023-04-25T11:19:29.167Z,8.66
2023-04-25T11:21:56.665Z,8.66
2023-04-25T11:24:28.252Z,8.63
2023-04-25T11:26:54.820Z,8.47
2023-04-25T11:29:25.068Z,8.58
2023-04-25T11:31:52.061Z,8.59
2023-04-25T11:34:21.182Z,8.74
2023-04-25T11:36:47.624Z,8.80
2023-04-25T11:39:14.648Z,8.75
2023-04-25T11:41:42.492Z,8.68
2023-04-25T11:44:09.597Z,8.55
2023-04-25T11:46:36.299Z,8.49
2023-04-25T11:49:03.317Z,8.48
2023-04-25T11:51:29.759Z,8.74
2023-04-25T11:53:56.340Z,8.87
2023-04-25T11:56:23.455Z,8.91
2023-04-25T11:59:23.940Z,8.81
2023-04-25T12:01:50.971Z,8.75
2023-04-25T12:04:18.886Z,8.91
2023-04-25T12:06:49.704Z,8.90
2023-04-25T12:09:19.391Z,8.84
2023-04-25T12:11:46.879Z,8.87
2023-04-25T12:14:23.027Z,8.89
2023-04-25T12:16:50.305Z,8.85
2023-04-25T12:19:17.988Z,8.87
2023-04-25T12:21:57.220Z,8.88
2023-04-25T12:24:26.833Z,8.75
2023-04-25T12:26:59.998Z,8.77
2023-04-25T12:29:31.736Z,8.84
2023-04-25T12:32:02.894Z,8.95
2023-04-25T12:34:29.454Z,9.13
2023-04-25T12:36:55.890Z,9.19
2023-04-25T12:39:24.210Z,9.17
2023-04-25T12:41:55.259Z,9.29
2023-04-25T12:44:22.184Z,9.25
2023-04-25T12:46:49.264Z,9.21
2023-04-25T12:49:19.019Z,9.21
2023-04-25T12:51:45.977Z,9.18
2023-04-25T12:54:12.614Z,9.21
2023-04-25T12:56:39.067Z,9.19
2023-04-25T12:59:05.576Z,9.14
2023-04-25T13:01:34.712Z,9.09
2023-04-25T13:04:02.984Z,9.08
2023-04-25T13:06:31.390Z,9.06
2023-04-25T13:08:57.982Z,8.97
2023-04-25T13:11:24.356Z,8.88
2023-04-25T13:13:50.935Z,8.98
2023-04-25T13:16:17.594Z,8.98
2023-04-25T13:18:44.317Z,8.99
2023-04-25T13:21:11.855Z,8.91
2023-04-25T13:23:38.432Z,8.73
2023-04-25T13:26:04.943Z,8.58
2023-04-25T13:28:31.560Z,8.59
2023-04-25T13:30:57.993Z,8.43
2023-04-25T13:33:24.345Z,8.35
2023-04-25T13:35:58.210Z,8.21
2023-04-25T13:38:26.819Z,8.14
2023-04-25T13:40:53.798Z,8.02
2023-04-25T13:43:23.926Z,8.13
2023-04-25T13:45:51.249Z,8.24
2023-04-25T13:48:18.894Z,8.21
2023-04-25T13:50:45.403Z,8.23
2023-04-25T13:53:11.864Z,8.14
2023-04-25T13:55:38.422Z,8.07
2023-04-25T13:58:11.143Z,8.08
2023-04-25T14:00:39.885Z,8.09
2023-04-25T14:03:08.547Z,8.14
2023-04-25T14:05:40.027Z,8.21
2023-04-25T14:08:10.351Z,8.19
2023-04-25T14:10:37.654Z,8.15
2023-04-25T14:13:04.944Z,8.24
2023-04-25T14:15:33.186Z,8.34
2023-04-25T14:18:01.023Z,8.40
2023-04-25T14:20:27.897Z,8.41
2023-04-25T14:22:55.672Z,8.54
2023-04-25T14:25:22.322Z,8.58
2023-04-25T14:27:50.861Z,8.86
2023-04-25T14:30:18.969Z,8.93
2023-04-25T14:32:46.400Z,9.00
2023-04-25T14:35:13.279Z,9.16
2023-04-25T14:37:40.267Z,9.28
2023-04-25T14:40:08.559Z,9.47
2023-04-25T14:42:35.165Z,9.47
2023-04-25T14:45:01.540Z,9.47
2023-04-25T14:47:28.326Z,9.32
2023-04-25T14:49:55.175Z,9.46
2023-04-25T14:52:22.072Z,9.53
2023-04-25T14:54:48.557Z,9.60
2023-04-25T14:57:16.762Z,9.44
2023-04-25T14:59:43.365Z,9.27
2023-04-25T15:02:09.916Z,9.29
2023-04-25T15:04:36.654Z,9.30
2023-04-25T15:07:03.795Z,9.16
2023-04-25T15:09:30.457Z,8.99
2023-04-25T15:11:58.296Z,8.96
2023-04-25T15:14:24.662Z,8.81
2023-04-25T15:16:51.096Z,8.82
2023-04-25T15:19:17.645Z,8.82
2023-04-25T15:21:44.088Z,8.80
2023-04-25T15:24:10.851Z,8.69
2023-04-25T15:26:37.470Z,8.66
2023-04-25T15:29:05.670Z,8.65
2023-04-25T15:31:33.526Z,8.57
2023-04-25T15:34:00.135Z,8.61
2023-04-25T15:36:26.625Z,8.56
2023-04-25T15:38:53.358Z,8.60
2023-04-25T15:41:19.755Z,8.57
2023-04-25T15:43:49.542Z,8.51
2023-04-25T15:46:16.506Z,8.57
2023-04-25T15:48:43.121Z,8.48
2023-04-25T15:51:10.089Z,8.51
2023-04-25T15:53:36.599Z,8.46
2023-04-25T15:56:04.585Z,8.43
2023-04-25T15:58:30.980Z,8.45
2023-04-25T16:00:57.519Z,8.39
2023-04-25T16:03:24.078Z,8.46
2023-04-25T16:05:50.728Z,8.49
2023-04-25T16:08:17.424Z,8.62
2023-04-25T16:10:43.806Z,8.59
2023-04-25T16:13:10.143Z,8.70
2023-04-25T16:15:36.940Z,8.66
2023-04-25T16:18:04.073Z,8.70
2023-04-25T16:20:30.569Z,8.76
2023-04-25T16:22:57.047Z,8.80
2023-04-25T16:25:23.492Z,8.79
2023-04-25T16:27:49.938Z,8.78
2023-04-25T16:30:16.404Z,8.84
2023-04-25T16:32:45.240Z,8.93
2023-04-25T16:35:12.345Z,8.92
2023-04-25T16:37:38.827Z,8.82
2023-04-25T16:40:08.869Z,8.85
2023-04-25T16:42:36.253Z,9.10
2023-04-25T16:45:04.910Z,9.46
2023-04-25T16:47:31.665Z,9.37
2023-04-25T16:50:00.501Z,9.20
2023-04-25T16:52:26.970Z,8.99
2023-04-25T16:54:53.347Z,8.86
2023-04-25T16:57:21.009Z,8.84
2023-04-25T16:59:47.472Z,8.77
2023-04-25T17:02:15.643Z,8.69
2023-04-25T17:04:42.081Z,8.73
2023-04-25T17:07:08.989Z,8.63
2023-04-25T17:09:36.145Z,8.59
2023-04-25T17:12:03.684Z,8.59
2023-04-25T17:14:30.352Z,8.57
2023-04-25T17:16:56.819Z,8.55
2023-04-25T17:19:23.229Z,8.70
2023-04-25T17:21:50.436Z,9.20
2023-04-25T17:24:18.123Z,10.39
2023-04-25T17:29:11.358Z,10.91
2023-04-25T17:31:38.138Z,9.48
2023-04-25T17:34:05.030Z,9.03
2023-04-25T17:36:31.456Z,8.87
2023-04-25T17:38:57.918Z,8.75
2023-04-25T17:41:24.365Z,8.61
2023-04-25T17:43:51.249Z,8.47
2023-04-25T17:46:20.870Z,8.41
2023-04-25T17:48:47.407Z,8.34
2023-04-25T17:51:13.843Z,8.27
2023-04-25T17:53:40.824Z,8.27
2023-04-25T17:56:23.459Z,8.30
2023-04-25T17:58:53.187Z,8.21
2023-04-25T18:01:22.661Z,8.20
2023-04-25T18:03:50.134Z,8.16
2023-04-25T18:06:17.850Z,8.21
2023-04-25T18:08:44.872Z,8.13
2023-04-25T18:11:12.187Z,8.10
2023-04-25T18:13:39.110Z,8.06
2023-04-25T18:16:05.841Z,8.05
2023-04-25T18:18:34.467Z,8.03
2023-04-25T18:21:03.874Z,7.95
2023-04-25T18:23:32.378Z,7.91
2023-04-25T18:25:58.835Z,7.90
2023-04-25T18:28:25.371Z,7.87
2023-04-25T18:30:51.753Z,7.83
2023-04-25T18:33:18.332Z,7.86
2023-04-25T18:35:55.388Z,7.72
2023-04-25T18:38:35.667Z,7.71
2023-04-25T18:41:24.114Z,7.71
2023-04-25T18:43:50.645Z,7.66
2023-04-25T18:46:22.287Z,7.63
2023-04-25T18:48:49.764Z,7.61
2023-04-25T18:51:17.043Z,7.54
2023-04-25T18:53:43.724Z,7.55
2023-04-25T18:56:10.431Z,7.51
2023-04-25T18:58:36.919Z,7.44
2023-04-25T19:01:04.747Z,7.44
2023-04-25T19:03:31.723Z,7.42
2023-04-25T19:05:58.318Z,7.38
2023-04-25T19:08:26.587Z,7.31
2023-04-25T19:10:53.623Z,7.32
2023-04-25T19:13:23.120Z,7.22
2023-04-25T19:15:49.578Z,7.25
2023-04-25T19:18:15.984Z,7.23
2023-04-25T19:20:42.573Z,7.18
2023-04-25T19:23:10.445Z,7.15
2023-04-25T19:25:36.847Z,7.10
2023-04-25T19:28:03.527Z,7.02
2023-04-25T19:30:29.979Z,7.01
2023-04-25T19:32:59.456Z,6.96
2023-04-25T19:35:30.687Z,6.96
2023-04-25T19:37:57.028Z,6.92
2023-04-25T19:40:23.401Z,6.88
2023-04-25T19:42:49.787Z,6.87
2023-04-25T19:45:16.250Z,6.86
2023-04-25T19:47:43.614Z,6.78
2023-04-25T19:50:10.884Z,6.76
2023-04-25T19:52:38.018Z,6.73
2023-04-25T19:55:05.391Z,6.70
2023-04-25T19:57:37.575Z,6.68
2023-04-25T20:00:10.716Z,6.69
2023-04-25T20:02:37.882Z,6.65
2023-04-25T20:05:08.575Z,6.68
2023-04-25T20:07:35.310Z,6.63
2023-04-25T20:10:01.968Z,6.59
2023-04-25T20:12:28.421Z,6.56
2023-04-25T20:14:54.804Z,6.59
2023-04-25T20:17:21.373Z,6.55
2023-04-25T20:19:47.745Z,6.55
2023-04-25T20:22:14.129Z,6.53
2023-04-25T20:24:40.894Z,6.50
2023-04-25T20:27:07.503Z,6.54
2023-04-25T20:29:33.920Z,6.50
2023-04-25T20:32:03.149Z,6.38
2023-04-25T20:34:31.536Z,6.37
2023-04-25T20:36:57.876Z,6.35
2023-04-25T20:39:24.240Z,6.40
2023-04-25T20:41:50.928Z,6.41
2023-04-25T20:44:19.092Z,6.33
2023-04-25T20:46:46.377Z,6.25
2023-04-25T20:49:12.976Z,6.25
2023-04-25T20:51:39.432Z,6.27
2023-04-25T20:54:05.966Z,6.26
2023-04-25T20:56:32.860Z,6.31
2023-04-25T20:58:59.590Z,6.32
2023-04-25T21:01:26.505Z,6.28
2023-04-25T21:03:53.226Z,6.26
2023-04-25T21:06:20.070Z,6.27
2023-04-25T21:08:46.649Z,6.28
2023-04-25T21:11:13.020Z,6.22
2023-04-25T21:13:39.697Z,6.28
2023-04-25T21:16:06.655Z,6.34
2023-04-25T21:18:34.662Z,6.30
2023-04-25T21:21:04.171Z,6.29
2023-04-25T21:23:30.987Z,6.30
2023-04-25T21:25:57.404Z,6.28
2023-04-25T21:28:24.001Z,6.30
2023-04-25T21:30:50.617Z,6.25
2023-04-25T21:33:17.010Z,6.23
2023-04-25T21:35:43.365Z,6.25
2023-04-25T21:38:09.893Z,6.24
2023-04-25T21:40:37.491Z,6.22
2023-04-25T21:43:04.172Z,6.21
2023-04-25T21:45:31.116Z,6.25
2023-04-25T21:47:57.912Z,6.21
2023-04-25T21:50:24.386Z,6.23
2023-04-25T21:52:50.828Z,6.17
2023-04-25T21:55:17.291Z,6.23
2023-04-25T21:57:43.823Z,6.21
2023-04-25T22:00:21.062Z,6.23
2023-04-25T22:02:48.296Z,6.25
2023-04-25T22:05:15.071Z,6.31
2023-04-25T22:07:41.547Z,6.31
2023-04-25T22:10:08.249Z,6.32
2023-04-25T22:12:34.998Z,6.32
2023-04-25T22:15:01.683Z,6.30
2023-04-25T22:17:28.390Z,6.36
2023-04-25T22:19:54.753Z,6.37
2023-04-25T22:22:21.535Z,6.31
2023-04-25T22:24:49.864Z,6.22
2023-04-25T22:27:16.876Z,6.21
2023-04-25T22:29:43.291Z,6.15
2023-04-25T22:32:09.726Z,6.11
2023-04-25T22:34:36.527Z,6.06
2023-04-25T22:37:03.307Z,6.00
2023-04-25T22:39:29.699Z,5.93
2023-04-25T22:41:56.355Z,6.03
2023-04-25T22:44:22.774Z,5.87
2023-04-25T22:46:49.669Z,5.88
2023-04-25T22:49:16.336Z,5.96
2023-04-25T22:51:42.992Z,5.90
2023-04-25T22:54:09.697Z,5.85
2023-04-25T22:56:36.353Z,5.83
2023-04-25T22:59:02.788Z,5.88
2023-04-25T23:01:29.326Z,5.83
2023-04-25T23:03:56.035Z,5.83
2023-04-25T23:06:22.918Z,5.81
2023-04-25T23:08:49.829Z,5.72
2023-04-25T23:11:16.419Z,5.79
2023-04-25T23:13:43.093Z,5.79
2023-04-25T23:16:10.925Z,5.79
2023-04-25T23:18:39.250Z,5.71
2023-04-25T23:21:09.523Z,5.73
2023-04-25T23:23:36.477Z,5.72
2023-04-25T23:26:12.253Z,5.78
2023-04-25T23:28:41.491Z,5.76
2023-04-25T23:31:09.342Z,5.71
2023-04-25T23:33:36.195Z,5.75
2023-04-25T23:36:02.859Z,5.70
2023-04-25T23:38:29.459Z,5.67
2023-04-25T23:40:56.125Z,5.72
2023-04-25T23:43:22.760Z,5.81
2023-04-25T23:45:49.380Z,5.74
2023-04-25T23:48:16.128Z,5.74
2023-04-25T23:50:42.803Z,5.75
2023-04-25T23:53:09.778Z,5.71
2023-04-25T23:55:36.261Z,5.72
2023-04-25T23:58:03.560Z,5.67
